Time;durP1;ratioP1;P1;durP2;ratioP2;P2;SDS_P1;SDS_P2;PMS_P1;PMS_P2;Temp;Humidity;BMP_temperature;BMP_pressure;BME280_temperature;BME280_humidity;BME280_pressure;Samples;Min_cycle;Max_cycle;Signal;HPM_P1;HPM_P2
2022/11/10 00:02:18;;;;;;;4.78;2.10;;;;;;;;;;5037706;28;20505;-67
2022/11/10 00:04:44;;;;;;;8.63;2.03;;;;;;;;;;5042223;28;20553;-65
2022/11/10 00:07:10;;;;;;;5.55;2.20;;;;;;;;;;5038168;28;20143;-65
2022/11/10 00:09:36;;;;;;;4.60;2.10;;;;;;;;;;5043921;28;20119;-66
2022/11/10 00:12:01;;;;;;;4.78;1.83;;;;;;;;;;5042766;28;20199;-66
2022/11/10 00:17:12;;;;;;;3.63;1.88;;;;;;;;;;5035400;28;20037;-65
2022/11/10 00:19:38;;;;;;;3.63;1.60;;;;;;;;;;5032607;28;20123;-66
2022/11/10 00:22:04;;;;;;;3.50;1.48;;;;;;;;;;5037850;28;20492;-67
2022/11/10 00:24:30;;;;;;;2.90;1.58;;;;;;;;;;5035253;28;20041;-64
2022/11/10 00:26:57;;;;;;;2.83;1.27;;;;;;;;;;5029790;28;20049;-65
2022/11/10 00:29:22;;;;;;;2.60;1.52;;;;;;;;;;5030642;28;20103;-65
2022/11/10 00:31:48;;;;;;;4.68;1.77;;;;;;;;;;5040959;28;20487;-66
2022/11/10 00:34:16;;;;;;;9.35;1.73;;;;;;;;;;5034788;28;20753;-66
2022/11/10 00:36:43;;;;;;;2.75;1.30;;;;;;;;;;5039504;28;20048;-65
2022/11/10 00:39:10;;;;;;;2.92;1.60;;;;;;;;;;5049963;28;20057;-66
2022/11/10 00:41:36;;;;;;;1.98;1.17;;;;;;;;;;5040706;28;20099;-64
2022/11/10 00:44:02;;;;;;;4.47;1.42;;;;;;;;;;5042373;28;20045;-63
2022/11/10 00:46:27;;;;;;;2.38;1.42;;;;;;;;;;5042594;28;20561;-66
2022/11/10 00:48:54;;;;;;;2.67;1.55;;;;;;;;;;5042832;28;20046;-64
2022/11/10 00:51:22;;;;;;;1.88;1.10;;;;;;;;;;5035542;28;20049;-65
2022/11/10 00:53:48;;;;;;;2.53;1.60;;;;;;;;;;5040758;28;20094;-66
2022/11/10 00:56:14;;;;;;;5.03;1.48;;;;;;;;;;5029896;28;20394;-64
2022/11/10 00:58:40;;;;;;;1.35;1.05;;;;;;;;;;5037346;28;20366;-65
2022/11/10 01:01:07;;;;;;;2.42;1.30;;;;;;;;;;5018307;28;20841;-66
2022/11/10 01:03:33;;;;;;;4.65;1.13;;;;;;;;;;5046871;28;20041;-65
2022/11/10 01:06:07;;;;;;;2.47;1.27;;;;;;;;;;5037790;28;20056;-67
2022/11/10 01:08:34;;;;;;;2.72;1.60;;;;;;;;;;5049819;28;20462;-65
2022/11/10 01:11:13;;;;;;;4.28;1.42;;;;;;;;;;5044009;28;20126;-69
2022/11/10 01:13:39;;;;;;;17.50;1.75;;;;;;;;;;5042999;28;20042;-64
2022/11/10 01:16:15;;;;;;;5.03;1.48;;;;;;;;;;5037566;28;20045;-64
2022/11/10 01:18:41;;;;;;;3.65;1.55;;;;;;;;;;5042536;28;20037;-65
2022/11/10 01:21:08;;;;;;;2.78;1.42;;;;;;;;;;5043012;28;20114;-65
2022/11/10 01:23:34;;;;;;;3.03;1.40;;;;;;;;;;5043579;28;20052;-64
2022/11/10 01:26:03;;;;;;;2.25;1.35;;;;;;;;;;5039342;28;20049;-65
2022/11/10 01:28:30;;;;;;;3.28;1.33;;;;;;;;;;5044189;28;21221;-67
2022/11/10 01:31:01;;;;;;;3.40;1.30;;;;;;;;;;5050294;28;20049;-68
2022/11/10 01:33:26;;;;;;;5.30;1.25;;;;;;;;;;5046935;28;20038;-65
2022/11/10 01:35:53;;;;;;;1.42;1.00;;;;;;;;;;5038825;28;20383;-68
2022/11/10 01:38:19;;;;;;;5.18;1.10;;;;;;;;;;5038977;28;20045;-69
2022/11/10 01:40:45;;;;;;;2.45;1.40;;;;;;;;;;5038013;28;20064;-73
2022/11/10 01:43:12;;;;;;;4.70;1.50;;;;;;;;;;5034666;28;20561;-64
2022/11/10 01:45:37;;;;;;;4.22;1.20;;;;;;;;;;5043517;28;20048;-64
2022/11/10 01:48:06;;;;;;;4.10;1.38;;;;;;;;;;5040460;28;20052;-65
2022/11/10 01:50:37;;;;;;;2.58;1.00;;;;;;;;;;5048333;28;20061;-71
2022/11/10 01:53:08;;;;;;;3.05;1.20;;;;;;;;;;5043385;28;20147;-67
2022/11/10 01:55:38;;;;;;;7.07;1.38;;;;;;;;;;5042157;28;20564;-68
2022/11/10 01:58:04;;;;;;;2.00;1.52;;;;;;;;;;5046312;28;20139;-69
2022/11/10 02:00:30;;;;;;;2.53;0.90;;;;;;;;;;5038600;28;20112;-64
2022/11/10 02:03:08;;;;;;;3.72;1.35;;;;;;;;;;5045148;28;20041;-65
2022/11/10 02:05:35;;;;;;;5.43;1.50;;;;;;;;;;5040303;28;20044;-64
2022/11/10 02:08:02;;;;;;;6.95;1.95;;;;;;;;;;5041884;28;20049;-71
2022/11/10 02:10:28;;;;;;;2.03;1.10;;;;;;;;;;5046601;28;20641;-66
2022/11/10 02:12:54;;;;;;;1.98;1.10;;;;;;;;;;5044162;28;20045;-64
2022/11/10 02:15:20;;;;;;;1.75;0.82;;;;;;;;;;5044890;28;20391;-63
2022/11/10 02:17:46;;;;;;;2.47;0.95;;;;;;;;;;5047593;28;20068;-63
2022/11/10 02:20:17;;;;;;;1.30;1.00;;;;;;;;;;5033994;28;20049;-66
2022/11/10 02:22:43;;;;;;;2.20;0.80;;;;;;;;;;5013283;28;20150;-67
2022/11/10 02:25:12;;;;;;;2.42;1.17;;;;;;;;;;5033883;28;20049;-64
2022/11/10 02:27:39;;;;;;;1.58;1.00;;;;;;;;;;5037907;28;20507;-65
2022/11/10 02:30:05;;;;;;;2.13;1.05;;;;;;;;;;5048489;28;20102;-66
2022/11/10 02:32:31;;;;;;;1.70;1.00;;;;;;;;;;5041159;28;20057;-62
2022/11/10 02:34:57;;;;;;;1.50;1.00;;;;;;;;;;5038241;28;20411;-63
2022/11/10 02:37:22;;;;;;;2.67;1.20;;;;;;;;;;5048384;28;20045;-67
2022/11/10 02:39:48;;;;;;;3.70;1.02;;;;;;;;;;5047961;28;20032;-63
2022/11/10 02:42:14;;;;;;;2.58;1.17;;;;;;;;;;5037711;28;20055;-64
2022/11/10 02:44:40;;;;;;;1.92;1.10;;;;;;;;;;5041182;28;20044;-63
2022/11/10 02:47:07;;;;;;;3.45;1.20;;;;;;;;;;5039440;28;20407;-66
2022/11/10 02:49:33;;;;;;;2.13;1.10;;;;;;;;;;5043389;28;20037;-66
2022/11/10 02:51:58;;;;;;;3.10;1.10;;;;;;;;;;5036108;28;20426;-63
2022/11/10 02:54:25;;;;;;;1.70;0.80;;;;;;;;;;5041858;28;20449;-71
2022/11/10 02:56:50;;;;;;;1.42;1.05;;;;;;;;;;5038755;28;20056;-63
2022/11/10 02:59:16;;;;;;;2.80;0.98;;;;;;;;;;5024733;28;20585;-69
2022/11/10 03:01:42;;;;;;;2.78;1.20;;;;;;;;;;5036764;28;20491;-64
2022/11/10 03:04:08;;;;;;;2.58;0.90;;;;;;;;;;5038109;28;20048;-65
2022/11/10 03:06:33;;;;;;;1.65;0.90;;;;;;;;;;5039586;28;20128;-66
2022/11/10 03:08:59;;;;;;;2.70;1.20;;;;;;;;;;5037485;28;20057;-64
2022/11/10 03:11:25;;;;;;;2.67;1.00;;;;;;;;;;5030550;28;20048;-66
2022/11/10 03:13:51;;;;;;;5.53;1.58;;;;;;;;;;5039631;28;20068;-66
2022/11/10 03:16:17;;;;;;;2.53;1.20;;;;;;;;;;5040572;28;20056;-69
2022/11/10 03:18:43;;;;;;;2.30;1.20;;;;;;;;;;5035793;28;20140;-70
2022/11/10 03:21:09;;;;;;;2.92;1.15;;;;;;;;;;5045690;28;20053;-69
2022/11/10 03:23:35;;;;;;;3.78;1.50;;;;;;;;;;5057854;28;20053;-65
2022/11/10 03:26:05;;;;;;;2.45;1.30;;;;;;;;;;5046851;28;20391;-69
2022/11/10 03:28:31;;;;;;;1.38;1.00;;;;;;;;;;5039556;28;20115;-66
2022/11/10 03:30:57;;;;;;;3.10;1.05;;;;;;;;;;5056965;28;20124;-68
2022/11/10 03:33:23;;;;;;;4.72;1.20;;;;;;;;;;5034171;28;20132;-64
2022/11/10 03:35:49;;;;;;;1.55;0.98;;;;;;;;;;5034214;28;20041;-64
2022/11/10 03:38:15;;;;;;;2.60;1.10;;;;;;;;;;5046674;28;20067;-64
2022/11/10 03:40:40;;;;;;;3.83;1.35;;;;;;;;;;5037639;28;20153;-65
2022/11/10 03:43:07;;;;;;;3.65;1.13;;;;;;;;;;5044411;28;20083;-70
2022/11/10 03:45:33;;;;;;;4.47;1.20;;;;;;;;;;5044908;28;20041;-65
2022/11/10 03:47:59;;;;;;;2.15;1.02;;;;;;;;;;5041853;28;20094;-64
2022/11/10 03:50:25;;;;;;;1.98;0.98;;;;;;;;;;5036381;28;20472;-68
2022/11/10 03:52:50;;;;;;;2.75;1.05;;;;;;;;;;5037908;28;20061;-64
2022/11/10 03:55:17;;;;;;;2.10;0.82;;;;;;;;;;5040638;28;20037;-65
2022/11/10 03:57:44;;;;;;;2.20;1.00;;;;;;;;;;5032397;28;20054;-67
2022/11/10 04:00:12;;;;;;;5.55;1.40;;;;;;;;;;5032099;28;20084;-63
2022/11/10 04:02:38;;;;;;;1.73;0.98;;;;;;;;;;5035599;28;20562;-64
2022/11/10 04:10:45;;;;;;;1.90;1.02;;;;;;;;;;5039588;28;20418;-66
2022/11/10 04:15:56;;;;;;;2.80;1.20;;;;;;;;;;5020933;28;20057;-63
2022/11/10 04:18:24;;;;;;;5.35;1.20;;;;;;;;;;5037963;28;20098;-69
2022/11/10 04:20:53;;;;;;;4.60;1.02;;;;;;;;;;5036874;28;20503;-63
2022/11/10 04:23:35;;;;;;;3.80;1.20;;;;;;;;;;5029359;28;20071;-62
2022/11/10 04:28:52;;;;;;;3.67;1.33;;;;;;;;;;5037855;28;20040;-65
2022/11/10 04:31:19;;;;;;;5.15;1.40;;;;;;;;;;5045855;28;20049;-64
2022/11/10 04:33:47;;;;;;;4.60;1.30;;;;;;;;;;5032284;28;20048;-66
2022/11/10 04:36:16;;;;;;;3.83;1.45;;;;;;;;;;5035278;28;20136;-68
2022/11/10 04:38:42;;;;;;;2.15;1.30;;;;;;;;;;5038904;28;20054;-69
2022/11/10 04:41:09;;;;;;;2.70;1.60;;;;;;;;;;5036829;28;20106;-65
2022/11/10 04:43:35;;;;;;;4.60;1.73;;;;;;;;;;5039345;28;20060;-65
2022/11/10 04:46:02;;;;;;;6.60;2.00;;;;;;;;;;5042399;28;20073;-66
2022/11/10 04:48:29;;;;;;;3.72;1.90;;;;;;;;;;5033543;28;20495;-68
2022/11/10 04:51:01;;;;;;;5.68;2.00;;;;;;;;;;5021353;28;20457;-64
2022/11/10 04:53:27;;;;;;;5.80;2.20;;;;;;;;;;5042474;28;20041;-64
2022/11/10 04:55:53;;;;;;;5.10;2.20;;;;;;;;;;5048428;28;20053;-67
2022/11/10 04:58:18;;;;;;;5.53;2.67;;;;;;;;;;5021149;28;20049;-65
2022/11/10 05:00:44;;;;;;;5.45;2.95;;;;;;;;;;5041034;28;20063;-71
2022/11/10 05:03:11;;;;;;;4.82;2.47;;;;;;;;;;5038526;28;20140;-67
2022/11/10 05:05:37;;;;;;;7.00;2.72;;;;;;;;;;5032475;28;20103;-64
2022/11/10 05:08:03;;;;;;;4.75;2.60;;;;;;;;;;5039256;28;20053;-64
2022/11/10 05:10:30;;;;;;;5.55;2.80;;;;;;;;;;5030665;28;20045;-70
2022/11/10 05:12:57;;;;;;;5.15;3.20;;;;;;;;;;5033605;28;20498;-67
2022/11/10 05:15:24;;;;;;;5.20;2.60;;;;;;;;;;5048886;28;20053;-66
2022/11/10 05:17:51;;;;;;;4.88;2.70;;;;;;;;;;5038663;28;20053;-68
2022/11/10 05:20:18;;;;;;;8.82;2.90;;;;;;;;;;5041521;28;20041;-65
2022/11/10 05:25:36;;;;;;;7.20;2.63;;;;;;;;;;5038815;28;20056;-64
2022/11/10 05:28:02;;;;;;;7.03;2.28;;;;;;;;;;5047579;28;20053;-65
2022/11/10 05:30:28;;;;;;;6.20;2.55;;;;;;;;;;5042841;28;20083;-70
2022/11/10 05:32:54;;;;;;;8.77;3.03;;;;;;;;;;5043919;28;20052;-64
2022/11/10 05:35:20;;;;;;;5.10;2.60;;;;;;;;;;5042228;28;20952;-65
2022/11/10 05:37:46;;;;;;;3.78;2.38;;;;;;;;;;5041558;28;20049;-67
2022/11/10 05:40:12;;;;;;;3.85;2.42;;;;;;;;;;5037151;28;20051;-65
2022/11/10 05:42:46;;;;;;;5.30;2.42;;;;;;;;;;5037385;28;20140;-64
2022/11/10 05:45:13;;;;;;;4.90;2.40;;;;;;;;;;5046810;28;20045;-64
2022/11/10 05:47:39;;;;;;;6.30;2.80;;;;;;;;;;5038538;28;20175;-71
2022/11/10 05:50:07;;;;;;;8.13;3.00;;;;;;;;;;5040409;28;20392;-63
2022/11/10 05:52:33;;;;;;;4.80;3.00;;;;;;;;;;5042227;28;20059;-70
2022/11/10 05:54:59;;;;;;;5.75;2.80;;;;;;;;;;5049595;28;20140;-63
2022/11/10 05:57:25;;;;;;;6.18;2.80;;;;;;;;;;5051744;28;20052;-70
2022/11/10 05:59:51;;;;;;;4.88;2.40;;;;;;;;;;5046053;28;20040;-73
2022/11/10 06:02:16;;;;;;;6.45;2.60;;;;;;;;;;5018362;28;20075;-67
2022/11/10 06:04:43;;;;;;;6.53;2.50;;;;;;;;;;5037222;28;20045;-65
2022/11/10 06:07:08;;;;;;;8.40;2.58;;;;;;;;;;5041465;28;20557;-68
2022/11/10 06:09:34;;;;;;;6.13;2.72;;;;;;;;;;5042323;28;20664;-67
2022/11/10 06:12:02;;;;;;;4.00;2.65;;;;;;;;;;5039017;28;20049;-67
2022/11/10 06:14:27;;;;;;;5.53;2.90;;;;;;;;;;5039149;28;20136;-64
2022/11/10 06:16:53;;;;;;;6.95;3.03;;;;;;;;;;5037568;28;20585;-62
2022/11/10 06:19:19;;;;;;;5.95;2.78;;;;;;;;;;5034504;28;20055;-67
2022/11/10 06:21:45;;;;;;;10.35;2.80;;;;;;;;;;5036608;28;20038;-67
2022/11/10 06:24:11;;;;;;;5.35;3.30;;;;;;;;;;5034712;28;20037;-64
2022/11/10 06:26:37;;;;;;;5.53;2.92;;;;;;;;;;5038164;28;20127;-69
2022/11/10 06:29:04;;;;;;;5.78;2.97;;;;;;;;;;5039807;28;20057;-69
2022/11/10 06:31:29;;;;;;;5.00;3.03;;;;;;;;;;5033148;28;20041;-66
2022/11/10 06:33:55;;;;;;;5.28;3.53;;;;;;;;;;5034247;28;20057;-70
2022/11/10 06:36:21;;;;;;;5.93;3.17;;;;;;;;;;5042036;28;20128;-69
2022/11/10 06:38:47;;;;;;;7.57;2.80;;;;;;;;;;5037651;28;20040;-64
2022/11/10 06:41:13;;;;;;;8.30;3.10;;;;;;;;;;5035661;28;20514;-72
2022/11/10 06:43:39;;;;;;;6.90;2.80;;;;;;;;;;5044629;28;20380;-66
2022/11/10 06:46:05;;;;;;;11.65;3.10;;;;;;;;;;5043114;28;20087;-69
2022/11/10 06:48:31;;;;;;;7.40;2.63;;;;;;;;;;5038552;28;20045;-74
2022/11/10 06:51:00;;;;;;;6.75;2.78;;;;;;;;;;5042172;28;20506;-68
2022/11/10 06:53:27;;;;;;;9.50;3.33;;;;;;;;;;5040143;28;20045;-68
2022/11/10 06:55:53;;;;;;;8.27;2.67;;;;;;;;;;5037404;28;20390;-67
2022/11/10 06:58:19;;;;;;;10.15;2.42;;;;;;;;;;5038743;28;20045;-64
2022/11/10 07:00:45;;;;;;;11.07;2.55;;;;;;;;;;5034973;28;20068;-67
2022/11/10 07:03:13;;;;;;;9.27;3.20;;;;;;;;;;5045283;28;20392;-69
2022/11/10 07:05:39;;;;;;;12.98;2.97;;;;;;;;;;5040425;28;20407;-66
2022/11/10 07:08:08;;;;;;;10.63;2.67;;;;;;;;;;5045183;28;20041;-67
2022/11/10 07:10:35;;;;;;;10.02;2.40;;;;;;;;;;5042730;28;20041;-65
2022/11/10 07:13:03;;;;;;;7.15;2.30;;;;;;;;;;5033645;28;20048;-70
2022/11/10 07:15:29;;;;;;;6.80;2.60;;;;;;;;;;5040998;28;20068;-68
2022/11/10 07:17:55;;;;;;;18.20;2.88;;;;;;;;;;5039962;28;20093;-67
2022/11/10 07:20:21;;;;;;;15.85;2.90;;;;;;;;;;5039291;28;20041;-69
2022/11/10 07:22:47;;;;;;;5.13;2.30;;;;;;;;;;5045010;28;20053;-72
2022/11/10 07:25:13;;;;;;;19.05;2.78;;;;;;;;;;5040461;28;20398;-68
2022/11/10 07:27:40;;;;;;;10.40;2.40;;;;;;;;;;5043769;28;20060;-67
2022/11/10 07:30:06;;;;;;;10.18;2.53;;;;;;;;;;5040894;28;20053;-67
2022/11/10 07:32:32;;;;;;;9.07;2.55;;;;;;;;;;5021410;28;20041;-72
2022/11/10 07:35:00;;;;;;;11.68;2.55;;;;;;;;;;5045655;28;20049;-67
2022/11/10 07:37:26;;;;;;;9.35;2.63;;;;;;;;;;5043807;28;20677;-68
2022/11/10 07:39:52;;;;;;;11.23;2.75;;;;;;;;;;5039578;28;20033;-67
2022/11/10 07:42:18;;;;;;;8.70;2.50;;;;;;;;;;5039552;28;20041;-68
2022/11/10 07:44:44;;;;;;;8.35;2.30;;;;;;;;;;5033215;28;20487;-68
2022/11/10 07:47:10;;;;;;;10.00;2.30;;;;;;;;;;5036747;28;20087;-65
2022/11/10 07:49:36;;;;;;;21.83;3.25;;;;;;;;;;5032309;28;20119;-67
2022/11/10 07:52:02;;;;;;;10.93;2.80;;;;;;;;;;5021681;28;20502;-66
2022/11/10 07:54:28;;;;;;;9.13;2.65;;;;;;;;;;5045116;28;20392;-64
2022/11/10 07:56:53;;;;;;;10.65;3.00;;;;;;;;;;5034477;28;20098;-67
2022/11/10 07:59:19;;;;;;;10.15;2.38;;;;;;;;;;5037577;28;20052;-67
2022/11/10 08:01:45;;;;;;;9.60;2.67;;;;;;;;;;5037332;28;20399;-69
2022/11/10 08:04:11;;;;;;;8.80;2.40;;;;;;;;;;5034612;28;20053;-65
2022/11/10 08:06:37;;;;;;;13.25;2.70;;;;;;;;;;5040237;28;20052;-68
2022/11/10 08:09:03;;;;;;;10.43;2.53;;;;;;;;;;5041385;28;20471;-66
2022/11/10 08:11:29;;;;;;;13.18;2.53;;;;;;;;;;5028915;28;20041;-66
2022/11/10 08:13:55;;;;;;;11.55;2.72;;;;;;;;;;5036148;28;21579;-70
2022/11/10 08:16:21;;;;;;;6.45;2.55;;;;;;;;;;5031430;28;20055;-66
2022/11/10 08:18:47;;;;;;;13.82;3.25;;;;;;;;;;5036572;28;20470;-67
2022/11/10 08:21:12;;;;;;;10.77;3.15;;;;;;;;;;5043141;28;20447;-69
2022/11/10 08:23:38;;;;;;;12.93;3.53;;;;;;;;;;5038178;28;20383;-68
2022/11/10 08:26:04;;;;;;;12.32;3.17;;;;;;;;;;5034335;28;20049;-67
2022/11/10 08:28:31;;;;;;;13.02;3.10;;;;;;;;;;5033861;28;20069;-69
2022/11/10 08:30:57;;;;;;;11.73;3.60;;;;;;;;;;5027518;28;20136;-68
2022/11/10 08:33:23;;;;;;;10.18;3.40;;;;;;;;;;5037356;28;20049;-68
2022/11/10 08:35:50;;;;;;;21.33;3.65;;;;;;;;;;5037640;28;20052;-69
2022/11/10 08:38:19;;;;;;;18.30;4.13;;;;;;;;;;5027059;28;20140;-69
2022/11/10 08:40:45;;;;;;;17.30;3.38;;;;;;;;;;5028975;28;20629;-68
2022/11/10 08:43:13;;;;;;;24.83;4.50;;;;;;;;;;5026684;28;20049;-70
2022/11/10 08:45:41;;;;;;;15.02;4.03;;;;;;;;;;5041698;28;20661;-66
2022/11/10 08:48:18;;;;;;;15.85;3.88;;;;;;;;;;5041311;28;20354;-66
2022/11/10 08:50:45;;;;;;;13.75;3.28;;;;;;;;;;5033403;28;20056;-70
2022/11/10 08:53:14;;;;;;;11.93;3.30;;;;;;;;;;5029887;28;20049;-68
2022/11/10 08:55:41;;;;;;;12.25;2.55;;;;;;;;;;5037435;28;20045;-67
2022/11/10 08:58:11;;;;;;;12.25;3.25;;;;;;;;;;5039525;28;20055;-68
2022/11/10 09:00:37;;;;;;;9.13;3.13;;;;;;;;;;5031884;28;20053;-70
2022/11/10 09:03:06;;;;;;;13.00;2.95;;;;;;;;;;5045644;28;20049;-69
2022/11/10 09:05:33;;;;;;;10.57;3.00;;;;;;;;;;5033605;28;20045;-70
2022/11/10 09:07:59;;;;;;;10.75;3.28;;;;;;;;;;5030461;28;20053;-68
2022/11/10 09:10:25;;;;;;;13.93;3.03;;;;;;;;;;5030621;28;20053;-68
2022/11/10 09:12:51;;;;;;;11.30;2.90;;;;;;;;;;5030526;28;20061;-69
2022/11/10 09:15:18;;;;;;;16.40;4.05;;;;;;;;;;5032564;28;20055;-69
2022/11/10 09:17:44;;;;;;;11.30;3.80;;;;;;;;;;5045511;28;20048;-68
2022/11/10 09:20:11;;;;;;;8.77;2.35;;;;;;;;;;5031138;28;20515;-71
2022/11/10 09:22:37;;;;;;;13.63;2.90;;;;;;;;;;5038874;28;20044;-69
2022/11/10 09:25:04;;;;;;;10.38;2.67;;;;;;;;;;5034404;28;20059;-67
2022/11/10 09:27:29;;;;;;;10.18;3.28;;;;;;;;;;5033719;28;20045;-66
2022/11/10 09:29:55;;;;;;;10.75;2.70;;;;;;;;;;5033352;28;20046;-68
2022/11/10 09:32:21;;;;;;;8.10;3.10;;;;;;;;;;5034173;28;20060;-67
2022/11/10 09:34:47;;;;;;;11.00;3.05;;;;;;;;;;5038149;28;20292;-71
2022/11/10 09:37:13;;;;;;;6.88;2.08;;;;;;;;;;5028940;28;20471;-68
2022/11/10 09:39:38;;;;;;;13.55;3.55;;;;;;;;;;5029459;28;20434;-68
2022/11/10 09:42:14;;;;;;;10.93;3.70;;;;;;;;;;5032646;28;20579;-69
2022/11/10 09:44:50;;;;;;;19.08;4.18;;;;;;;;;;5031836;28;20053;-69
2022/11/10 09:47:24;;;;;;;9.40;3.53;;;;;;;;;;5035064;28;20491;-66
2022/11/10 09:49:56;;;;;;;9.88;3.55;;;;;;;;;;5032854;28;20041;-72
2022/11/10 09:52:23;;;;;;;12.25;3.80;;;;;;;;;;5047123;28;20052;-68
2022/11/10 09:55:23;;;;;;;18.88;4.53;;;;;;;;;;5036508;28;20495;-69
2022/11/10 09:57:53;;;;;;;17.50;4.38;;;;;;;;;;5041683;28;20052;-73
2022/11/10 10:00:19;;;;;;;17.50;3.88;;;;;;;;;;5035454;28;20124;-66
2022/11/10 10:02:52;;;;;;;11.95;3.70;;;;;;;;;;5049465;28;20090;-67
2022/11/10 10:05:30;;;;;;;8.65;2.65;;;;;;;;;;5035081;28;20091;-67
2022/11/10 10:08:02;;;;;;;6.20;2.30;;;;;;;;;;5044618;28;20484;-68
2022/11/10 10:11:01;;;;;;;7.95;2.08;;;;;;;;;;5042021;28;20041;-67
2022/11/10 10:13:46;;;;;;;6.60;2.20;;;;;;;;;;5029295;28;20431;-72
2022/11/10 10:16:20;;;;;;;4.47;1.70;;;;;;;;;;5042041;28;20491;-66
2022/11/10 10:18:56;;;;;;;6.55;1.50;;;;;;;;;;5029955;28;20033;-66
2022/11/10 10:21:42;;;;;;;4.85;1.50;;;;;;;;;;5030222;28;20045;-67
2022/11/10 10:24:14;;;;;;;6.57;1.60;;;;;;;;;;5029205;28;20056;-68
2022/11/10 10:26:45;;;;;;;6.13;1.30;;;;;;;;;;5034242;28;20109;-67
2022/11/10 10:29:22;;;;;;;4.95;1.48;;;;;;;;;;5029055;28;20049;-67
2022/11/10 10:31:51;;;;;;;7.75;1.80;;;;;;;;;;5038089;28;20057;-69
2022/11/10 10:34:20;;;;;;;2.13;0.77;;;;;;;;;;5020239;28;20041;-67
2022/11/10 10:36:46;;;;;;;4.40;1.55;;;;;;;;;;5027648;28;20207;-67
2022/11/10 10:39:15;;;;;;;4.80;1.00;;;;;;;;;;5028360;28;20057;-66
2022/11/10 10:41:44;;;;;;;5.05;0.93;;;;;;;;;;5028303;28;20054;-67
2022/11/10 10:44:13;;;;;;;3.45;1.10;;;;;;;;;;5030798;28;20057;-69
2022/11/10 10:46:48;;;;;;;1.95;0.90;;;;;;;;;;5044793;28;20132;-68
2022/11/10 10:49:21;;;;;;;4.50;1.10;;;;;;;;;;5019803;28;20049;-66
2022/11/10 10:51:49;;;;;;;2.60;1.00;;;;;;;;;;5037962;28;20045;-65
2022/11/10 10:54:42;;;;;;;3.58;1.00;;;;;;;;;;5033492;28;20049;-68
2022/11/10 10:57:16;;;;;;;4.75;1.05;;;;;;;;;;5028456;28;20057;-69
2022/11/10 10:59:42;;;;;;;1.13;0.80;;;;;;;;;;5037025;28;20045;-70
2022/11/10 11:02:31;;;;;;;1.80;0.80;;;;;;;;;;5042406;28;20099;-68
2022/11/10 11:05:17;;;;;;;2.00;1.00;;;;;;;;;;5028257;28;20041;-67
2022/11/10 11:07:59;;;;;;;5.22;0.82;;;;;;;;;;5030201;28;20053;-67
2022/11/10 11:10:31;;;;;;;1.02;0.70;;;;;;;;;;5043345;28;20041;-66
2022/11/10 11:13:30;;;;;;;3.58;1.05;;;;;;;;;;5033362;28;20036;-67
2022/11/10 11:16:01;;;;;;;1.60;0.90;;;;;;;;;;5008959;28;20041;-67
2022/11/10 11:18:29;;;;;;;2.25;1.00;;;;;;;;;;5029199;28;20076;-68
2022/11/10 11:21:07;;;;;;;3.35;1.10;;;;;;;;;;5040852;28;20069;-67
2022/11/10 11:24:01;;;;;;;3.13;1.00;;;;;;;;;;5038197;28;20053;-67
2022/11/10 11:26:49;;;;;;;1.90;0.95;;;;;;;;;;5036945;28;20132;-68
2022/11/10 11:29:22;;;;;;;2.42;1.10;;;;;;;;;;5027600;28;20521;-68
2022/11/10 11:32:07;;;;;;;7.00;1.25;;;;;;;;;;5030995;28;20288;-67
2022/11/10 11:34:48;;;;;;;;;;;;;;;;;;5038629;28;20049;-68
2022/11/10 11:37:19;;;;;;;2.15;1.10;;;;;;;;;;5032123;28;20168;-69
2022/11/10 11:40:21;;;;;;;2.65;1.05;;;;;;;;;;5026832;28;20439;-66
2022/11/10 11:42:59;;;;;;;3.15;0.93;;;;;;;;;;5018913;28;20050;-68
2022/11/10 11:45:41;;;;;;;2.88;1.10;;;;;;;;;;5032312;28;20051;-67
2022/11/10 11:48:35;;;;;;;3.63;1.00;;;;;;;;;;5032893;28;20049;-67
2022/11/10 11:51:36;;;;;;;4.63;0.95;;;;;;;;;;5037416;28;20046;-67
2022/11/10 11:54:21;;;;;;;2.33;1.00;;;;;;;;;;5013187;28;20556;-68
2022/11/10 11:56:49;;;;;;;1.30;0.80;;;;;;;;;;5026272;28;20194;-69
2022/11/10 12:00:00;;;;;;;1.55;0.95;;;;;;;;;;5026411;28;20527;-68
2022/11/10 12:02:45;;;;;;;2.38;1.52;;;;;;;;;;5027681;28;20052;-67
2022/11/10 12:05:16;;;;;;;3.28;1.48;;;;;;;;;;5027356;28;20130;-68
2022/11/10 12:08:09;;;;;;;5.35;1.13;;;;;;;;;;5038832;28;20152;-68
2022/11/10 12:10:46;;;;;;;2.00;0.93;;;;;;;;;;5028310;28;20061;-68
2022/11/10 12:13:24;;;;;;;8.93;1.80;;;;;;;;;;5026129;28;20057;-68
2022/11/10 12:15:59;;;;;;;3.72;0.70;;;;;;;;;;5040270;28;20065;-68
2022/11/10 12:18:40;;;;;;;2.53;0.82;;;;;;;;;;5035136;28;20042;-69
2022/11/10 12:21:24;;;;;;;2.17;1.25;;;;;;;;;;5026065;28;20355;-69
2022/11/10 12:23:50;;;;;;;;;;;;;;;;;;5032676;28;20049;-68
2022/11/10 12:26:40;;;;;;;3.03;1.00;;;;;;;;;;5025074;28;20083;-68
2022/11/10 12:29:25;;;;;;;3.17;1.08;;;;;;;;;;5030343;28;20111;-68
2022/11/10 12:32:02;;;;;;;2.20;1.25;;;;;;;;;;5037022;28;20049;-69
2022/11/10 12:34:33;;;;;;;5.63;1.90;;;;;;;;;;5035566;28;20111;-68
2022/11/10 12:37:03;;;;;;;3.28;1.33;;;;;;;;;;5046454;28;20048;-67
2022/11/10 12:39:52;;;;;;;2.67;0.98;;;;;;;;;;5038183;28;20038;-67
2022/11/10 12:42:21;;;;;;;4.90;1.20;;;;;;;;;;5036343;28;20038;-67
2022/11/10 12:44:58;;;;;;;6.93;1.67;;;;;;;;;;5033351;28;20049;-67
2022/11/10 12:47:44;;;;;;;7.70;1.35;;;;;;;;;;5039413;28;20077;-67
2022/11/10 12:50:21;;;;;;;3.53;1.30;;;;;;;;;;5047085;28;20120;-67
2022/11/10 12:52:53;;;;;;;4.78;0.90;;;;;;;;;;5034224;28;20621;-67
2022/11/10 12:55:24;;;;;;;3.90;1.55;;;;;;;;;;5035773;28;20049;-68
2022/11/10 12:57:50;;;;;;;1.10;0.70;;;;;;;;;;5048969;28;20172;-68
2022/11/10 13:00:37;;;;;;;2.15;0.90;;;;;;;;;;5035125;28;20061;-69
2022/11/10 13:03:04;;;;;;;2.63;0.88;;;;;;;;;;5037552;28;20494;-69
2022/11/10 13:05:30;;;;;;;2.60;0.60;;;;;;;;;;5036312;28;20052;-67
2022/11/10 13:08:13;;;;;;;3.92;1.33;;;;;;;;;;5041905;28;20053;-68
2022/11/10 13:11:11;;;;;;;5.90;1.20;;;;;;;;;;5035037;28;20447;-67
2022/11/10 13:13:53;;;;;;;3.65;1.40;;;;;;;;;;5032988;28;20434;-69
2022/11/10 13:16:40;;;;;;;2.53;1.25;;;;;;;;;;5035393;28;20041;-66
2022/11/10 13:19:32;;;;;;;3.17;0.82;;;;;;;;;;5036405;28;20045;-68
2022/11/10 13:21:59;;;;;;;2.65;1.15;;;;;;;;;;5040562;28;20506;-68
2022/11/10 13:24:33;;;;;;;1.77;1.00;;;;;;;;;;5043153;28;20048;-67
2022/11/10 13:27:03;;;;;;;3.17;0.80;;;;;;;;;;5047558;28;20503;-69
2022/11/10 13:29:36;;;;;;;1.17;0.60;;;;;;;;;;5034984;28;20045;-69
2022/11/10 13:32:29;;;;;;;2.80;0.50;;;;;;;;;;5036590;28;20057;-69
2022/11/10 13:35:29;;;;;;;2.15;0.70;;;;;;;;;;5034603;28;20045;-67
2022/11/10 13:37:56;;;;;;;2.53;0.80;;;;;;;;;;5040505;28;20090;-68
2022/11/10 13:40:22;;;;;;;2.15;0.70;;;;;;;;;;5036089;28;20095;-67
2022/11/10 13:42:57;;;;;;;1.83;0.80;;;;;;;;;;5036891;28;20567;-67
2022/11/10 13:45:41;;;;;;;5.57;0.70;;;;;;;;;;5038477;28;20037;-70
2022/11/10 13:48:10;;;;;;;1.95;1.02;;;;;;;;;;5045170;28;20049;-69
2022/11/10 13:51:20;;;;;;;2.33;0.90;;;;;;;;;;5046835;28;20520;-67
2022/11/10 13:54:05;;;;;;;2.55;1.27;;;;;;;;;;5039223;28;20045;-66
2022/11/10 13:56:30;;;;;;;;;;;;;;;;;;5032475;28;20041;-68
2022/11/10 13:58:57;;;;;;;1.27;0.68;;;;;;;;;;5042179;28;20364;-68
2022/11/10 14:01:27;;;;;;;1.38;0.70;;;;;;;;;;5028720;28;20522;-68
2022/11/10 14:03:57;;;;;;;1.90;0.70;;;;;;;;;;5029128;28;20111;-67
2022/11/10 14:06:27;;;;;;;4.28;1.00;;;;;;;;;;5031029;28;20057;-66
2022/11/10 14:09:05;;;;;;;3.38;0.98;;;;;;;;;;5035664;28;20136;-68
2022/11/10 14:11:39;;;;;;;5.90;1.30;;;;;;;;;;5015022;28;20072;-70
2022/11/10 14:14:22;;;;;;;;;;;;;;;;;;5033944;28;20053;-67
2022/11/10 14:16:49;;;;;;;2.30;0.80;;;;;;;;;;5039960;28;20042;-73
2022/11/10 14:19:38;;;;;;;2.55;0.90;;;;;;;;;;5041692;28;20491;-67
2022/11/10 14:22:22;;;;;;;1.77;0.65;;;;;;;;;;5029440;28;20048;-67
2022/11/10 14:24:53;;;;;;;;;;;;;;;;;;5033241;28;20045;-68
2022/11/10 14:27:25;;;;;;;3.15;0.70;;;;;;;;;;5032627;28;19921;-69
2022/11/10 14:30:23;;;;;;;3.33;0.80;;;;;;;;;;5029029;28;20138;-70
2022/11/10 14:33:03;;;;;;;1.83;0.80;;;;;;;;;;5031353;28;20045;-67
2022/11/10 14:35:33;;;;;;;1.85;0.90;;;;;;;;;;5030083;28;20053;-69
2022/11/10 14:38:01;;;;;;;2.05;0.70;;;;;;;;;;5036229;28;20041;-68
2022/11/10 14:40:28;;;;;;;2.65;0.68;;;;;;;;;;5033110;28;20061;-68
2022/11/10 14:42:55;;;;;;;6.20;1.15;;;;;;;;;;5036343;28;20041;-68
2022/11/10 14:45:24;;;;;;;1.85;0.60;;;;;;;;;;5034395;28;20037;-67
2022/11/10 14:47:52;;;;;;;3.67;0.90;;;;;;;;;;5032881;28;20061;-68
2022/11/10 14:50:31;;;;;;;1.63;0.90;;;;;;;;;;5034291;28;20042;-68
2022/11/10 14:53:20;;;;;;;1.58;0.75;;;;;;;;;;5041601;28;20053;-69
2022/11/10 14:55:49;;;;;;;3.63;2.63;;;;;;;;;;5012462;28;20051;-68
2022/11/10 14:58:40;;;;;;;4.28;0.82;;;;;;;;;;5040893;28;20095;-68
2022/11/10 15:01:19;;;;;;;0.65;0.55;;;;;;;;;;5033149;28;20052;-67
2022/11/10 15:03:45;;;;;;;3.53;0.80;;;;;;;;;;5030248;28;20259;-69
2022/11/10 15:06:11;;;;;;;4.22;1.00;;;;;;;;;;5049040;28;20053;-69
2022/11/10 15:08:39;;;;;;;1.95;0.55;;;;;;;;;;5033361;28;20451;-67
2022/11/10 15:11:06;;;;;;;1.77;0.60;;;;;;;;;;5028214;28;20514;-68
2022/11/10 15:13:37;;;;;;;2.65;0.80;;;;;;;;;;5028984;28;20052;-68
2022/11/10 15:16:24;;;;;;;4.65;0.77;;;;;;;;;;5026579;28;20503;-68
2022/11/10 15:18:52;;;;;;;5.70;1.50;;;;;;;;;;5026409;28;20041;-66
2022/11/10 15:21:20;;;;;;;3.63;0.95;;;;;;;;;;5035710;28;20045;-71